默认 日期 大小 文件数 浏览量 最新下载 xml
- part 1磁力链接相关资源由用户搜索指令自动获取,结果来源于网络,本站不存储任何资料,亦不承担任何责任,请于24小时内删除,搜索到43489个磁力,显示前4000条数据,用时78ms。
    {"WWRG read Me.txt": 563, "Coronation Street 17th Sep 2018 part 1 1080p (Deep61) [WWRG].mp4": 498193644}
创建时间: 2018-12-03 02:24:09 大小:475.12 MB 文件数量:2 热度:10 最近下载:2025-02-04 13:14:02
    ... 21394743, "11 Sudden Death Overtime Part Two - Two-Minute Warning [ ... Annual (1992-06) 03 (Story 1)].cbz": 25085614}, "076 Legionnaires": ... , "04 the quiet darkness - Part II [Legion of Super-Heroes ... {"02 Twentieth Century Wolf, Chapter 1 [Timber Wolf (1992-11) ...
创建时间: 2018-12-03 03:05:36 大小:7.45 GB 文件数量:231 热度:15 最近下载:2025-09-28 20:03:02
    ... , "Elvis.Presley.The.Searcher.2018.Part.1.720p.HEVC.x265-MeGusta.mkv ... , "Elvis.Presley.The.Searcher.2018.Part.1.720p.HEVC.x265-MeGusta.nfo ...
创建时间: 2018-12-03 03:36:01 大小:771.37 MB 文件数量:7 热度:9 最近下载:2024-12-27 12:35:02
    {"RARBG.txt": 30, "mlib.17.03.05.nina.elle.mommy.issues.part.1.mp4": 2654815073, "mlib.17.03.05.nina.elle.mommy.issues.part.1.nfo": 5212}
创建时间: 2018-12-03 03:48:30 大小:2.47 GB 文件数量:3 热度:46 最近下载:2025-04-08 17:36:03
    ... Potter and the Deathly Hallows Part 1 HDRip XviD-MAXSPEED.nfo": 3143 ... Potter and the Deathly Hallows Part 1 HDRip XviD-MAXSPEED www.torentz ...
创建时间: 2018-12-03 03:48:38 大小:2.04 GB 文件数量:9 热度:10 最近下载:2025-02-20 06:36:02
    {"Read Me.pdf": 522708, "Start Page.html": 1805, "Chapter List.png": 994026, "Chapter 34 Stitches.mp4": 211852788, "Zbrush_Character_part_01": {"js": {"slideshowpro.js": 11401}, "album1": {"images": {"25_Veins.mp4": 222733598, "07_Zspheres.mp4": 144006919, ...
创建时间: 2018-12-03 04:05:09 大小:4.36 GB 文件数量:43 热度:13 最近下载:2025-02-12 20:59:03
    {"FutileStruggles.Tough.Cop.Ariel.Captured.And.Hogtied.Toes.To.Wrists.By.Miguel-Part.1.XXX.720p.MP4-hUSHhUSH[N1C].mp4": 394862255}
创建时间: 2018-12-03 04:48:08 大小:376.57 MB 文件数量:1 热度:19 最近下载:2024-09-03 05:23:02
    {"Torrent-Downloaded-From-extratorrent.cc.txt": 301, "Fast.N.Loud.S06E01.Cutlass.Lowrider.Part.1.HDTV.x264-FUM.mp4": 434309832}
创建时间: 2018-12-03 04:53:04 大小:414.19 MB 文件数量:2 热度:10 最近下载:2025-01-07 10:27:06
    {"JAMTRAX": {"mtbp1_-_4_all_blues_jtx.mp3": 1882804, "mtbp1_-_3_jazz_blues_jtx.mp3": 1282801, "mtbp1_-_5_minor_blues_1_jtx.mp3": 1518959, "mtbp1_-_6_minor_blues_2_jtx.mp3": 1547762, "mtbp1_-_1_standard_blues_jtx.mp3": 1576536, "mtbp1_- ...
创建时间: 2018-12-03 05:04:02 大小:3.35 GB 文件数量:14 热度:13 最近下载:2025-02-08 00:40:07
    ... vector set part 1": {"design-tnt-frames-vector-set-part-1.ai": 7872933 ... , "design-tnt-frames-vector-set-part- ... "design-tnt-frames-vector-set-part-1.jpg": 1372160, "design-tnt ... "design-tnt-frames-vector-set-part-3.jpg": 610582}, "Blank ...
创建时间: 2018-12-03 05:42:37 大小:10.15 GB 文件数量:8751 热度:19 最近下载:2025-08-04 18:42:11
    {"RARBG.txt": 30, "wankitnow.18.02.20.faye.my.filthy.brother.part.1.4k.mp4": 1432201513, "wankitnow.18.02.20.faye.my.filthy.brother.part.1.4k.nfo": 5202}
创建时间: 2018-12-03 05:53:22 大小:1.33 GB 文件数量:3 热度:14 最近下载:2025-01-17 12:55:04
    {"file_id.diz": 73, "gagball.nfo": 236, "0999_001.jpg": 2055652, "0999_002.jpg": 1794426, "0999_003.jpg": 2030098, "0999_004.jpg": 2261674, "0999_005.jpg": 2039897, "0999_006.jpg": 2115904, "0999_007.jpg": 2259742, "0999_008.jpg": 2310818, "0999_009.jpg": ...
创建时间: 2018-12-03 06:05:37 大小:107.33 MB 文件数量:54 热度:13 最近下载:2025-06-19 01:17:01
    {"RARBG.txt": 30, "Alias.Grace.S01E01.Part.1.1080p.iT.WEB-DL.DD5.1.H264-NTb.mkv": 1921729067, "Alias.Grace.S01E01.Part.1.1080p.iT.WEB-DL.DD5.1.H264-NTb.srt": 58142}
创建时间: 2018-12-03 06:19:10 大小:1.79 GB 文件数量:3 热度:8 最近下载:2025-09-30 07:43:01
    ... ": 414, "Sasha Rose - FirstAnalQuest - Episode 1.MKV": 277967239, "Sasha Rose - Hard ... Double Anal - Scene 1.mkv": 246901990, "Sasha Rose - How ...
创建时间: 2018-12-03 06:29:31 大小:15.26 GB 文件数量:64 热度:92 最近下载:2025-02-20 14:10:02
    ... ": 8843702, "Diary of a Worm - Part 1.pdf": 2370006, "Growing Muscles - Christmas ...
创建时间: 2018-12-03 06:36:06 大小:38.35 MB 文件数量:6 热度:19 最近下载:2025-08-18 05:58:02
    ... Everyday Computing with Windows 8.1 (2015).pdf": 8981227, " ... 26839401, "Computer and Internet Collection Part 1 (2014 - 2015).nfo": 13698, ... 70-688 Supporting Windows 8.1 (2014).pdf": 167794693, ... Process Modeling to BPM Vol. 1 (2015).pdf": 57393187, " ...
创建时间: 2018-12-03 06:53:22 大小:3.34 GB 文件数量:192 热度:10 最近下载:2025-02-25 08:35:05
    ... ": 7810128, "2. Namespaces.mp4": 5180632, "1. Introduction.mp4": 2583154, "8. Architecture ... 3950636, "2. Solutions.mp4": 2304170, "1. Introduction.mp4": 2660706, "4. Adding ... ": 2480144, "8. Refactoring.mp4": 2993837, "1. Introduction.mp4": 3064816, "11. Demo ...
创建时间: 2018-12-03 06:56:46 大小:1.05 GB 文件数量:65 热度:9 最近下载:2025-08-04 11:23:08
    {"WWRG read Me.txt": 563, "Coronation Street 16th Jul 2018 part 1 1080p (Deep61) [WWRG].mp4": 520725877}
创建时间: 2018-12-03 07:10:06 大小:496.6 MB 文件数量:2 热度:9 最近下载:2025-06-30 16:24:02
    {"HdT - Mar 19, 2014 - Penny Barber.mp4": 2217761137}
创建时间: 2018-12-03 07:17:45 大小:2.07 GB 文件数量:1 热度:7 最近下载:2023-04-21 02:30:08
    {"RARBG.com.txt": 34, "yp-re150711plaaappp1.nfo": 8616, "RE_Penny_princess1_1080p.mp4": 608466221}
创建时间: 2018-12-03 07:47:17 大小:580.29 MB 文件数量:3 热度:19 最近下载:2025-02-25 04:01:49